createdAt,value
2019-04-14T00:00:38.304Z,14.10
2019-04-14T00:01:39.074Z,16.80
2019-04-14T00:02:38.246Z,17.20
2019-04-14T00:03:39.018Z,17.00
2019-04-14T00:04:38.079Z,21.00
2019-04-14T00:05:38.611Z,15.50
2019-04-14T00:06:38.061Z,15.40
2019-04-14T00:07:38.483Z,8.90
2019-04-14T00:08:39.327Z,9.10
2019-04-14T00:09:38.091Z,13.10
2019-04-14T00:10:38.030Z,9.50
2019-04-14T00:11:38.686Z,14.20
2019-04-14T00:12:38.400Z,9.50
2019-04-14T00:13:39.173Z,10.10
2019-04-14T00:14:38.269Z,12.40
2019-04-14T00:15:41.990Z,11.40
2019-04-14T00:16:38.039Z,11.30
2019-04-14T00:17:39.135Z,12.00
2019-04-14T00:18:38.249Z,9.90
2019-04-14T00:19:39.085Z,12.80
2019-04-14T00:20:38.241Z,11.30
2019-04-14T00:21:38.862Z,10.90
2019-04-14T00:22:38.091Z,11.50
2019-04-14T00:23:39.005Z,13.00
2019-04-14T00:24:38.131Z,12.50
2019-04-14T00:25:38.781Z,13.80
2019-04-14T00:26:38.000Z,15.10
2019-04-14T00:27:38.851Z,16.60
2019-04-14T00:28:38.281Z,17.40
2019-04-14T00:29:37.879Z,16.80
2019-04-14T00:30:38.254Z,20.10
2019-04-14T00:31:38.811Z,16.10
2019-04-14T00:32:37.927Z,13.70
2019-04-14T00:33:38.816Z,11.20
2019-04-14T00:34:37.841Z,11.40
2019-04-14T00:35:38.556Z,13.20
2019-04-14T00:36:37.822Z,10.50
2019-04-14T00:37:38.041Z,15.30
2019-04-14T00:38:39.025Z,14.20
2019-04-14T00:39:37.924Z,15.60
2019-04-14T00:40:38.927Z,10.50
2019-04-14T00:41:46.701Z,9.90
2019-04-14T00:42:38.658Z,10.70
2019-04-14T00:43:37.765Z,11.20
2019-04-14T00:44:38.671Z,17.70
2019-04-14T00:45:45.246Z,12.20
2019-04-14T00:46:38.707Z,12.20
2019-04-14T00:47:49.819Z,13.10
2019-04-14T00:48:38.662Z,12.60
2019-04-14T00:49:37.717Z,14.10
2019-04-14T00:50:38.673Z,16.50
2019-04-14T00:51:39.133Z,12.00
2019-04-14T00:52:37.693Z,12.70
2019-04-14T00:53:38.199Z,17.50
2019-04-14T00:54:37.676Z,12.20
2019-04-14T00:55:37.982Z,16.50
2019-04-14T00:56:37.664Z,15.90
2019-04-14T00:57:37.724Z,16.80
2019-04-14T00:58:38.870Z,17.30
2019-04-14T00:59:37.639Z,19.00
2019-04-14T01:00:38.603Z,18.00
2019-04-14T01:01:37.622Z,18.40
2019-04-14T01:02:38.502Z,22.80
2019-04-14T01:03:37.606Z,16.30
2019-04-14T01:04:38.288Z,12.10
2019-04-14T01:05:37.591Z,15.50
2019-04-14T01:06:38.255Z,12.60
2019-04-14T01:07:37.577Z,13.50
2019-04-14T01:08:38.106Z,13.80
2019-04-14T01:09:37.560Z,12.00
2019-04-14T01:10:37.551Z,15.90
2019-04-14T01:11:37.876Z,14.20
2019-04-14T01:12:38.727Z,12.70
2019-04-14T01:13:37.577Z,14.30
2019-04-14T01:14:38.597Z,16.20
2019-04-14T01:15:48.745Z,16.00
2019-04-14T01:16:38.534Z,19.70
2019-04-14T01:17:37.495Z,19.50
2019-04-14T01:18:38.593Z,17.30
2019-04-14T01:19:37.479Z,24.40
2019-04-14T01:20:38.450Z,17.00
2019-04-14T01:21:37.462Z,19.20
2019-04-14T01:22:38.091Z,23.30
2019-04-14T01:23:37.453Z,22.40
2019-04-14T01:24:38.194Z,17.40
2019-04-14T01:25:37.432Z,14.40
2019-04-14T01:26:37.809Z,14.80
2019-04-14T01:27:38.411Z,17.40
2019-04-14T01:28:37.566Z,16.50
2019-04-14T01:29:38.378Z,14.30
2019-04-14T01:30:37.391Z,17.30
2019-04-14T01:31:38.145Z,18.60
2019-04-14T01:32:37.375Z,15.50
2019-04-14T01:33:37.936Z,18.70
2019-04-14T01:34:37.358Z,15.60
2019-04-14T01:35:37.909Z,16.30
2019-04-14T01:36:37.345Z,18.50
2019-04-14T01:37:37.604Z,17.20
2019-04-14T01:38:38.442Z,18.60
2019-04-14T01:39:37.321Z,18.40
2019-04-14T01:40:38.071Z,20.00
2019-04-14T01:41:37.304Z,23.00
2019-04-14T01:42:37.713Z,19.10
2019-04-14T01:43:38.454Z,20.60
2019-04-14T01:44:37.373Z,21.00
2019-04-14T01:45:38.115Z,20.20
2019-04-14T01:46:37.427Z,16.60
2019-04-14T01:47:37.724Z,18.00
2019-04-14T01:48:37.246Z,15.00
2019-04-14T01:49:37.617Z,14.70
2019-04-14T01:50:37.233Z,15.50
2019-04-14T01:51:37.393Z,16.90
2019-04-14T01:52:38.392Z,10.80
2019-04-14T01:53:37.918Z,12.80
2019-04-14T01:54:37.198Z,14.00
2019-04-14T01:55:37.345Z,14.90
2019-04-14T01:56:38.373Z,13.50
2019-04-14T01:57:37.177Z,16.00
2019-04-14T01:58:38.155Z,14.10
2019-04-14T01:59:37.160Z,16.20
2019-04-14T02:00:38.101Z,19.70
2019-04-14T02:01:37.142Z,16.00
2019-04-14T02:02:37.872Z,11.80
2019-04-14T02:03:37.129Z,17.70
2019-04-14T02:04:37.713Z,13.10
2019-04-14T02:05:37.110Z,12.60
2019-04-14T02:06:37.636Z,13.10
2019-04-14T02:07:38.263Z,15.70
2019-04-14T02:08:37.222Z,11.60
2019-04-14T02:09:37.889Z,14.90
2019-04-14T02:10:37.069Z,17.40
2019-04-14T02:11:37.694Z,12.50
2019-04-14T02:12:37.052Z,12.20
2019-04-14T02:13:37.551Z,12.00
2019-04-14T02:14:37.038Z,14.30
2019-04-14T02:15:37.427Z,13.00
2019-04-14T02:16:41.879Z,14.20
2019-04-14T02:17:37.130Z,12.20
2019-04-14T02:18:38.303Z,12.50
2019-04-14T02:19:37.187Z,14.70
2019-04-14T02:20:38.121Z,16.30
2019-04-14T02:21:36.978Z,15.60
2019-04-14T02:22:37.620Z,15.10
2019-04-14T02:23:36.962Z,14.90
2019-04-14T02:24:37.473Z,13.40
2019-04-14T02:25:38.103Z,14.80
2019-04-14T02:26:37.322Z,14.60
2019-04-14T02:27:38.163Z,15.60
2019-04-14T02:28:37.545Z,15.00
2019-04-14T02:29:38.279Z,15.30
2019-04-14T02:30:44.148Z,11.00
2019-04-14T02:32:01.422Z,12.40
2019-04-14T02:33:07.724Z,14.40
2019-04-14T02:34:09.541Z,13.10
2019-04-14T02:35:03.073Z,16.40
2019-04-14T02:36:10.169Z,12.70
2019-04-14T02:37:08.428Z,11.60
2019-04-14T02:39:06.418Z,13.80
2019-04-14T02:40:04.095Z,17.30
2019-04-14T02:43:02.748Z,15.80
2019-04-14T02:44:04.383Z,15.40
2019-04-14T02:45:10.302Z,18.00
2019-04-14T02:47:29.374Z,13.80
2019-04-14T02:49:11.149Z,15.00
2019-04-14T02:51:07.705Z,12.20
2019-04-14T02:52:04.091Z,13.10
2019-04-14T02:53:12.241Z,12.80
2019-04-14T02:54:07.280Z,12.30
2019-04-14T02:56:08.149Z,16.40
2019-04-14T02:57:02.001Z,12.40
2019-04-14T02:58:04.267Z,13.80
2019-04-14T02:59:05.600Z,17.80
2019-04-14T03:00:08.583Z,14.40
2019-04-14T03:01:06.898Z,11.50
2019-04-14T03:02:15.900Z,13.80
2019-04-14T03:02:56.785Z,12.90
2019-04-14T03:03:56.490Z,13.40
2019-04-14T03:06:10.335Z,10.70
2019-04-14T03:07:08.640Z,12.30
2019-04-14T03:08:00.600Z,17.30
2019-04-14T03:10:20.915Z,14.10
2019-04-14T03:11:03.019Z,13.90
2019-04-14T03:12:01.382Z,17.30
2019-04-14T03:13:05.712Z,12.70
2019-04-14T03:15:01.493Z,16.70
2019-04-14T03:16:02.332Z,12.70
2019-04-14T03:17:18.650Z,15.50
2019-04-14T03:18:16.858Z,15.00
2019-04-14T03:19:01.932Z,13.80
2019-04-14T03:21:03.982Z,12.30
2019-04-14T03:21:09.228Z,15.90
2019-04-14T03:22:12.634Z,13.20
2019-04-14T03:22:55.837Z,14.90
2019-04-14T03:24:07.049Z,14.30
2019-04-14T03:24:50.326Z,10.40
2019-04-14T03:25:59.358Z,16.10
2019-04-14T03:27:15.151Z,13.10
2019-04-14T03:27:59.085Z,18.30
2019-04-14T03:28:58.558Z,15.90
2019-04-14T03:30:21.425Z,15.90
2019-04-14T03:32:14.959Z,17.60
2019-04-14T03:35:30.210Z,15.50
2019-04-14T03:39:10.663Z,13.80
2019-04-14T03:40:00.673Z,15.30
2019-04-14T03:41:08.885Z,16.10
2019-04-14T03:42:00.362Z,25.20
2019-04-14T03:43:19.683Z,18.80
2019-04-14T03:43:54.292Z,11.70
2019-04-14T03:48:34.410Z,13.80
2019-04-14T03:49:17.133Z,17.00
2019-04-14T03:50:06.155Z,17.90
2019-04-14T03:51:06.743Z,13.60
2019-04-14T03:51:57.665Z,14.00
2019-04-14T03:53:05.848Z,14.10
2019-04-14T03:53:58.485Z,14.50
2019-04-14T03:54:50.118Z,18.20
2019-04-14T03:55:43.247Z,12.70
2019-04-14T03:56:36.165Z,14.40
2019-04-14T03:57:36.694Z,17.10
2019-04-14T03:58:36.145Z,14.60
2019-04-14T03:59:36.754Z,16.40
2019-04-14T04:00:36.128Z,16.60
2019-04-14T04:01:36.770Z,11.70
2019-04-14T04:02:36.110Z,13.80
2019-04-14T04:03:36.836Z,19.20
2019-04-14T04:04:36.096Z,18.30
2019-04-14T04:05:36.723Z,19.10
2019-04-14T04:06:36.095Z,18.90
2019-04-14T04:07:36.461Z,19.50
2019-04-14T04:08:36.058Z,19.60
2019-04-14T04:09:36.501Z,19.40
2019-04-14T04:10:36.039Z,14.90
2019-04-14T04:11:36.659Z,14.70
2019-04-14T04:12:36.024Z,20.00
2019-04-14T04:13:36.598Z,21.50
2019-04-14T04:14:36.005Z,16.30
2019-04-14T04:15:36.466Z,21.40
2019-04-14T04:16:35.989Z,17.60
2019-04-14T04:17:36.285Z,19.70
2019-04-14T04:18:47.398Z,14.40
2019-04-14T04:19:35.964Z,19.20
2019-04-14T04:20:36.995Z,18.30
2019-04-14T04:21:35.947Z,16.60
2019-04-14T04:22:36.814Z,21.30
2019-04-14T04:23:35.929Z,24.70
2019-04-14T04:24:36.867Z,24.00
2019-04-14T04:25:35.915Z,22.50
2019-04-14T04:26:36.606Z,20.60
2019-04-14T04:27:35.895Z,22.50
2019-04-14T04:28:36.416Z,16.10
2019-04-14T04:29:35.878Z,13.00
2019-04-14T04:30:36.238Z,17.70
2019-04-14T04:31:35.858Z,16.60
2019-04-14T04:32:36.227Z,12.90
2019-04-14T04:33:35.845Z,14.90
2019-04-14T04:34:35.915Z,16.80
2019-04-14T04:35:37.051Z,15.90
2019-04-14T04:36:35.816Z,15.80
2019-04-14T04:37:36.759Z,15.20
2019-04-14T04:38:35.797Z,13.60
2019-04-14T04:39:36.942Z,17.30
2019-04-14T04:40:35.781Z,15.40
2019-04-14T04:41:36.430Z,16.60
2019-04-14T04:42:35.764Z,13.90
2019-04-14T04:43:36.522Z,14.40
2019-04-14T04:44:35.747Z,20.50
2019-04-14T04:45:36.523Z,16.90
2019-04-14T04:46:35.730Z,19.50
2019-04-14T04:47:36.253Z,18.00
2019-04-14T04:48:35.711Z,17.80
2019-04-14T04:49:36.179Z,22.40
2019-04-14T04:50:36.725Z,17.20
2019-04-14T04:51:35.741Z,12.60
2019-04-14T04:52:36.485Z,17.50
2019-04-14T04:53:35.665Z,16.80
2019-04-14T04:54:36.396Z,18.40
2019-04-14T04:55:35.650Z,20.10
2019-04-14T04:56:36.204Z,15.90
2019-04-14T04:57:35.630Z,17.50
2019-04-14T04:58:35.621Z,17.10
2019-04-14T04:59:36.596Z,17.10
2019-04-14T05:00:35.605Z,17.30
2019-04-14T05:01:36.433Z,15.00
2019-04-14T05:02:35.586Z,18.00
2019-04-14T05:03:36.368Z,11.90
2019-04-14T05:04:35.571Z,22.20
2019-04-14T05:05:36.242Z,22.30
2019-04-14T05:06:35.549Z,20.40
2019-04-14T05:07:36.265Z,15.90
2019-04-14T05:08:35.533Z,17.70
2019-04-14T05:09:36.220Z,16.10
2019-04-14T05:10:35.516Z,16.10
2019-04-14T05:11:36.188Z,15.70
2019-04-14T05:12:35.496Z,17.40
2019-04-14T05:13:35.928Z,15.80
2019-04-14T05:14:35.479Z,17.50
2019-04-14T05:15:35.828Z,15.80
2019-04-14T05:16:36.529Z,13.00
2019-04-14T05:17:36.633Z,13.30
2019-04-14T05:18:35.570Z,19.10
2019-04-14T05:19:38.621Z,18.00
2019-04-14T05:20:35.598Z,16.60
2019-04-14T05:21:36.574Z,16.40
2019-04-14T05:22:35.470Z,14.70
2019-04-14T05:23:36.615Z,19.40
2019-04-14T05:24:35.418Z,13.60
2019-04-14T05:25:36.468Z,17.00
2019-04-14T05:26:35.374Z,14.50
2019-04-14T05:27:36.459Z,15.20
2019-04-14T05:28:35.355Z,13.80
2019-04-14T05:29:36.428Z,16.80
2019-04-14T05:30:35.336Z,14.50
2019-04-14T05:31:36.062Z,12.80
2019-04-14T05:32:35.322Z,21.90
2019-04-14T05:33:36.025Z,17.00
2019-04-14T05:34:35.302Z,17.50
2019-04-14T05:35:35.832Z,18.70
2019-04-14T05:36:35.284Z,23.20
2019-04-14T05:37:35.678Z,21.40
2019-04-14T05:38:35.796Z,13.60
2019-04-14T05:39:35.453Z,12.90
2019-04-14T05:40:36.333Z,17.40
2019-04-14T05:41:35.397Z,13.90
2019-04-14T05:42:36.176Z,12.70
2019-04-14T05:43:43.776Z,13.50
2019-04-14T05:44:36.022Z,11.30
2019-04-14T05:45:35.205Z,12.40
2019-04-14T05:46:35.962Z,13.40
2019-04-14T05:47:35.188Z,14.60
2019-04-14T05:48:35.782Z,12.30
2019-04-14T05:49:41.220Z,14.40
2019-04-14T05:50:35.686Z,14.40
2019-04-14T05:51:35.151Z,15.10
2019-04-14T05:52:36.033Z,18.40
2019-04-14T05:53:35.169Z,19.20
2019-04-14T05:54:36.021Z,22.40
2019-04-14T05:55:35.257Z,14.70
2019-04-14T05:56:36.494Z,20.40
2019-04-14T05:57:35.180Z,13.90
2019-04-14T05:58:36.042Z,18.50
2019-04-14T05:59:35.330Z,17.80
2019-04-14T06:00:36.276Z,17.90
2019-04-14T06:01:35.072Z,13.80
2019-04-14T06:02:35.606Z,17.30
2019-04-14T06:03:36.130Z,21.20
2019-04-14T06:04:35.265Z,14.60
2019-04-14T06:05:36.069Z,20.20
2019-04-14T06:06:35.021Z,15.00
2019-04-14T06:07:35.015Z,20.00
2019-04-14T06:08:35.006Z,19.50
2019-04-14T06:09:34.999Z,16.00
2019-04-14T06:10:34.988Z,18.20
2019-04-14T06:11:34.980Z,15.90
2019-04-14T06:12:34.970Z,19.50
2019-04-14T06:13:34.974Z,20.80
2019-04-14T06:14:34.953Z,19.30
2019-04-14T06:15:34.948Z,18.30
2019-04-14T06:16:34.939Z,18.00
2019-04-14T06:17:34.929Z,19.20
2019-04-14T06:18:34.920Z,16.80
2019-04-14T06:19:38.030Z,13.40
2019-04-14T06:20:34.904Z,15.70
2019-04-14T06:21:34.896Z,14.30
2019-04-14T06:22:34.889Z,14.70
2019-04-14T06:23:34.880Z,19.00
2019-04-14T06:24:34.871Z,16.50
2019-04-14T06:25:36.365Z,15.30
2019-04-14T06:26:34.853Z,21.50
2019-04-14T06:27:34.847Z,14.90
2019-04-14T06:28:34.837Z,14.20
2019-04-14T06:29:34.835Z,15.50
2019-04-14T06:30:34.822Z,13.90
2019-04-14T06:31:34.813Z,15.00
2019-04-14T06:32:34.805Z,11.60
2019-04-14T06:33:34.798Z,15.10
2019-04-14T06:34:34.787Z,13.00
2019-04-14T06:35:34.779Z,16.60
2019-04-14T06:36:34.773Z,13.80
2019-04-14T06:37:34.764Z,19.80
2019-04-14T06:38:34.755Z,15.90
2019-04-14T06:39:34.749Z,13.60
2019-04-14T06:40:34.740Z,13.20
2019-04-14T06:41:34.732Z,15.30
2019-04-14T06:42:34.722Z,14.30
2019-04-14T06:43:34.713Z,12.30
2019-04-14T06:44:34.708Z,12.20
2019-04-14T06:45:34.700Z,12.40
2019-04-14T06:46:34.690Z,13.90
2019-04-14T06:47:34.682Z,12.50
2019-04-14T06:48:34.673Z,14.50
2019-04-14T06:49:34.665Z,11.50
2019-04-14T06:50:34.682Z,16.10
2019-04-14T06:51:34.652Z,12.30
2019-04-14T06:52:34.645Z,11.00
2019-04-14T06:53:34.634Z,14.40
2019-04-14T06:54:34.628Z,12.60
2019-04-14T06:55:34.618Z,10.50
2019-04-14T06:56:34.609Z,14.60
2019-04-14T06:57:34.607Z,17.60
2019-04-14T06:58:34.593Z,15.60
2019-04-14T06:59:34.588Z,15.20
2019-04-14T07:00:34.578Z,15.90
2019-04-14T07:01:34.573Z,13.20
2019-04-14T07:02:34.573Z,15.60
2019-04-14T07:03:34.555Z,12.00
2019-04-14T07:04:34.547Z,14.40
2019-04-14T07:05:34.539Z,12.80
2019-04-14T07:06:34.543Z,15.30
2019-04-14T07:07:34.525Z,14.10
2019-04-14T07:08:34.515Z,15.60
2019-04-14T07:09:34.510Z,14.50
2019-04-14T07:10:34.500Z,12.50
2019-04-14T07:11:34.494Z,11.60
2019-04-14T07:12:34.489Z,15.30
2019-04-14T07:13:34.478Z,13.10
2019-04-14T07:14:34.470Z,12.90
2019-04-14T07:15:34.463Z,12.70
2019-04-14T07:16:34.456Z,12.90
2019-04-14T07:17:34.446Z,14.80
2019-04-14T07:18:34.441Z,14.80
2019-04-14T07:19:34.436Z,13.90
2019-04-14T07:20:34.424Z,13.00
2019-04-14T07:21:34.419Z,16.40
2019-04-14T07:22:34.411Z,13.50
2019-04-14T07:23:34.402Z,13.00
2019-04-14T07:24:34.397Z,12.60
2019-04-14T07:25:34.388Z,12.20
2019-04-14T07:26:34.379Z,12.50
2019-04-14T07:27:34.374Z,13.00
2019-04-14T07:28:34.365Z,15.00
2019-04-14T07:29:34.358Z,18.30
2019-04-14T07:30:34.350Z,13.40
2019-04-14T07:31:34.346Z,15.80
2019-04-14T07:32:34.337Z,11.90
2019-04-14T07:33:34.328Z,15.10
2019-04-14T07:34:36.296Z,13.40
2019-04-14T07:35:34.316Z,15.00
2019-04-14T07:36:34.332Z,12.80
2019-04-14T07:37:34.300Z,14.60
2019-04-14T07:38:34.291Z,13.50
2019-04-14T07:39:34.283Z,14.40
2019-04-14T07:40:34.276Z,13.10
2019-04-14T07:41:34.269Z,13.80
2019-04-14T07:42:34.261Z,13.20
2019-04-14T07:43:34.254Z,18.20
2019-04-14T07:44:34.249Z,14.00
2019-04-14T07:45:34.242Z,11.90
2019-04-14T07:46:34.234Z,16.50
2019-04-14T07:47:34.227Z,14.30
2019-04-14T07:48:34.219Z,13.60
2019-04-14T07:49:34.215Z,14.30
2019-04-14T07:50:34.204Z,16.80
2019-04-14T07:51:34.198Z,20.30
2019-04-14T07:52:34.193Z,15.70
2019-04-14T07:53:34.184Z,13.60
2019-04-14T07:54:34.177Z,12.60
2019-04-14T07:55:34.169Z,14.10
2019-04-14T07:56:34.167Z,13.20
2019-04-14T07:57:34.156Z,10.80
2019-04-14T07:58:34.149Z,14.20
2019-04-14T07:59:34.142Z,15.20
2019-04-14T08:00:34.137Z,12.40
2019-04-14T08:01:34.173Z,13.70
2019-04-14T08:02:34.123Z,13.00
2019-04-14T08:03:34.116Z,13.40
2019-04-14T08:04:34.109Z,14.00
2019-04-14T08:05:34.104Z,15.20
2019-04-14T08:06:34.096Z,12.60
2019-04-14T08:07:34.090Z,12.30
2019-04-14T08:08:34.083Z,11.00
2019-04-14T08:09:34.076Z,11.60
2019-04-14T08:10:34.068Z,14.30
2019-04-14T08:11:34.060Z,9.80
2019-04-14T08:12:35.187Z,10.20
2019-04-14T08:13:34.048Z,15.10
2019-04-14T08:14:34.040Z,15.30
2019-04-14T08:15:34.035Z,14.40
2019-04-14T08:16:34.029Z,11.60
2019-04-14T08:17:34.022Z,14.20
2019-04-14T08:18:34.016Z,16.70
2019-04-14T08:19:34.010Z,13.10
2019-04-14T08:20:34.004Z,14.00
2019-04-14T08:21:33.996Z,12.00
2019-04-14T08:22:33.995Z,11.90
2019-04-14T08:23:33.982Z,15.60
2019-04-14T08:24:33.977Z,15.00
2019-04-14T08:25:33.972Z,16.40
2019-04-14T08:26:33.964Z,14.50
2019-04-14T08:27:33.956Z,11.90
2019-04-14T08:28:33.952Z,13.10
2019-04-14T08:29:33.945Z,11.00
2019-04-14T08:30:33.940Z,9.70
2019-04-14T08:31:33.936Z,11.70
2019-04-14T08:32:33.929Z,13.70
2019-04-14T08:33:33.924Z,13.00
2019-04-14T08:34:33.919Z,11.80
2019-04-14T08:35:33.918Z,10.00
2019-04-14T08:36:33.913Z,12.70
2019-04-14T08:37:33.911Z,10.00
2019-04-14T08:38:33.907Z,12.50
2019-04-14T08:39:33.903Z,10.10
2019-04-14T08:40:33.900Z,9.70
2019-04-14T08:41:33.902Z,11.30
2019-04-14T08:42:33.899Z,9.10
2019-04-14T08:43:33.901Z,10.80
2019-04-14T08:44:33.896Z,12.60
2019-04-14T08:45:33.896Z,13.80
2019-04-14T08:47:38.474Z,7.50
2019-04-14T08:48:37.256Z,8.70
2019-04-14T08:49:37.258Z,13.00
2019-04-14T08:50:39.680Z,10.10
2019-04-14T08:51:37.256Z,10.50
2019-04-14T08:52:37.260Z,10.40
2019-04-14T08:53:37.261Z,12.80
2019-04-14T08:54:37.261Z,13.70
2019-04-14T08:55:37.265Z,9.40
2019-04-14T08:56:37.269Z,7.00
2019-04-14T08:57:37.268Z,9.20
2019-04-14T08:58:37.272Z,7.80
2019-04-14T08:59:37.273Z,8.60
2019-04-14T09:00:37.277Z,8.10
2019-04-14T09:01:37.282Z,9.40
2019-04-14T09:02:37.284Z,10.20
2019-04-14T09:03:37.314Z,11.20
2019-04-14T09:04:37.291Z,11.80
2019-04-14T09:05:37.295Z,12.20
2019-04-14T09:06:37.297Z,9.10
2019-04-14T09:07:37.304Z,10.50
2019-04-14T09:08:37.308Z,11.10
2019-04-14T09:09:37.314Z,9.70
2019-04-14T09:10:37.316Z,9.60
2019-04-14T09:11:37.320Z,6.90
2019-04-14T09:12:37.331Z,7.80
2019-04-14T09:13:37.328Z,9.50
2019-04-14T09:14:37.335Z,8.00
2019-04-14T09:15:37.341Z,9.00
2019-04-14T09:16:37.343Z,8.60
2019-04-14T09:17:37.348Z,6.60
2019-04-14T09:18:37.352Z,6.90
2019-04-14T09:19:37.358Z,8.30
2019-04-14T09:20:51.770Z,8.80
2019-04-14T09:21:37.367Z,9.90
2019-04-14T09:22:37.371Z,8.50
2019-04-14T09:23:37.378Z,8.40
2019-04-14T09:24:37.382Z,8.50
2019-04-14T09:25:40.010Z,8.80
2019-04-14T09:26:37.393Z,9.50
2019-04-14T09:27:37.398Z,7.50
2019-04-14T09:28:37.405Z,6.50
2019-04-14T09:29:37.413Z,9.80
2019-04-14T09:30:37.415Z,6.40
2019-04-14T09:31:37.421Z,9.60
2019-04-14T09:32:37.432Z,7.80
2019-04-14T09:33:37.431Z,8.50
2019-04-14T09:34:37.437Z,6.80
2019-04-14T09:35:37.444Z,7.00
2019-04-14T09:36:37.449Z,8.80
2019-04-14T09:37:37.457Z,7.50
2019-04-14T09:38:37.462Z,8.90
2019-04-14T09:39:37.468Z,7.90
2019-04-14T09:40:37.472Z,9.20
2019-04-14T09:41:37.480Z,8.40
2019-04-14T09:42:37.485Z,9.10
2019-04-14T09:43:37.489Z,7.40
2019-04-14T09:44:37.495Z,6.30
2019-04-14T09:45:37.504Z,10.70
2019-04-14T09:46:37.508Z,6.90
2019-04-14T09:47:37.512Z,9.70
2019-04-14T09:48:37.518Z,7.60
2019-04-14T09:49:37.522Z,9.90
2019-04-14T09:50:37.528Z,6.60
2019-04-14T09:51:37.534Z,9.40
2019-04-14T09:52:37.537Z,9.30
2019-04-14T09:53:37.544Z,9.90
2019-04-14T09:54:37.550Z,9.90
2019-04-14T09:55:37.574Z,10.50
2019-04-14T09:56:37.556Z,7.40
2019-04-14T09:57:37.563Z,7.30
2019-04-14T09:58:37.569Z,8.70
2019-04-14T09:59:37.571Z,7.50
2019-04-14T10:00:37.578Z,9.00
2019-04-14T10:01:37.582Z,7.70
2019-04-14T10:02:37.585Z,7.50
2019-04-14T10:03:37.591Z,9.10
2019-04-14T10:04:37.597Z,7.20
2019-04-14T10:05:37.599Z,7.10
2019-04-14T10:06:37.604Z,7.40
2019-04-14T10:07:37.612Z,6.60
2019-04-14T10:08:37.615Z,7.90
2019-04-14T10:09:37.619Z,7.20
2019-04-14T10:10:37.625Z,6.80
2019-04-14T10:11:47.936Z,7.00
2019-04-14T10:12:37.634Z,7.00
2019-04-14T10:13:37.640Z,8.50
2019-04-14T10:14:37.642Z,8.80
2019-04-14T10:15:37.646Z,6.30
2019-04-14T10:16:37.651Z,7.50
2019-04-14T10:17:37.658Z,6.60
2019-04-14T10:18:37.663Z,12.70
2019-04-14T10:19:37.664Z,10.00
2019-04-14T10:20:37.671Z,8.20
2019-04-14T10:21:37.675Z,6.90
2019-04-14T10:22:37.679Z,8.00
2019-04-14T10:23:39.523Z,6.40
2019-04-14T10:24:37.689Z,14.80
2019-04-14T10:25:37.692Z,7.00
2019-04-14T10:26:37.696Z,6.40
2019-04-14T10:27:37.702Z,7.50
2019-04-14T10:28:37.707Z,8.70
2019-04-14T10:29:37.711Z,7.50
2019-04-14T10:30:37.717Z,7.10
2019-04-14T10:31:37.721Z,7.00
2019-04-14T10:32:37.729Z,6.80
2019-04-14T10:33:37.731Z,6.70
2019-04-14T10:34:37.732Z,8.10
2019-04-14T10:35:37.740Z,8.40
2019-04-14T10:36:37.747Z,6.40
2019-04-14T10:37:37.751Z,6.20
2019-04-14T10:38:37.801Z,6.30
2019-04-14T10:39:37.758Z,5.80
2019-04-14T10:40:37.760Z,6.60
2019-04-14T10:41:37.770Z,6.90
2019-04-14T10:42:37.768Z,7.40
2019-04-14T10:43:37.771Z,6.30
2019-04-14T10:44:37.776Z,7.00
2019-04-14T10:45:38.146Z,7.20
2019-04-14T10:46:37.782Z,8.20
2019-04-14T10:47:37.786Z,6.70
2019-04-14T10:48:37.797Z,6.20
2019-04-14T10:49:37.793Z,10.00
2019-04-14T10:50:37.799Z,7.40
2019-04-14T10:51:37.798Z,6.30
2019-04-14T10:52:37.803Z,5.90
2019-04-14T10:53:37.804Z,7.70
2019-04-14T10:54:37.806Z,6.30
2019-04-14T10:55:37.809Z,7.70
2019-04-14T10:56:37.814Z,8.90
2019-04-14T10:57:37.813Z,9.60
2019-04-14T10:58:37.818Z,6.70
2019-04-14T10:59:37.820Z,9.70
2019-04-14T11:00:37.821Z,8.70
2019-04-14T11:01:37.822Z,6.30
2019-04-14T11:02:37.823Z,10.10
2019-04-14T11:03:37.828Z,9.90
2019-04-14T11:04:37.827Z,9.70
2019-04-14T11:05:37.829Z,9.60
2019-04-14T11:07:31.174Z,7.00
2019-04-14T11:08:31.176Z,9.30
2019-04-14T11:09:31.184Z,17.00
2019-04-14T11:10:31.379Z,10.10
2019-04-14T11:12:44.559Z,11.20
2019-04-14T11:13:44.571Z,9.90
2019-04-14T11:14:44.562Z,10.10
2019-04-14T11:15:44.585Z,6.40
2019-04-14T11:16:44.562Z,7.00
2019-04-14T11:17:44.564Z,7.40
2019-04-14T11:18:44.563Z,10.60
2019-04-14T11:19:44.615Z,9.40
2019-04-14T11:20:44.570Z,8.70
2019-04-14T11:21:44.564Z,7.10
2019-04-14T11:22:44.564Z,9.30
2019-04-14T11:23:44.933Z,7.00
2019-04-14T11:24:44.568Z,10.70
2019-04-14T11:25:44.569Z,11.20
2019-04-14T11:26:44.564Z,10.70
2019-04-14T11:27:44.565Z,11.80
2019-04-14T11:28:44.562Z,8.70
2019-04-14T11:29:44.562Z,12.00
2019-04-14T11:30:44.563Z,6.90
2019-04-14T11:31:44.561Z,10.90
2019-04-14T11:32:44.562Z,10.20
2019-04-14T11:33:44.922Z,13.60
2019-04-14T11:34:44.561Z,9.90
2019-04-14T11:36:32.891Z,11.30
2019-04-14T11:37:33.103Z,10.50
2019-04-14T11:38:32.895Z,10.30
2019-04-14T11:39:32.901Z,11.30
2019-04-14T11:40:34.692Z,8.20
2019-04-14T11:41:32.912Z,11.50
2019-04-14T11:45:19.685Z,8.60
2019-04-14T11:46:19.683Z,10.40
2019-04-14T11:47:19.681Z,18.20
2019-04-14T11:48:19.682Z,11.10
2019-04-14T11:49:19.679Z,12.50
2019-04-14T11:50:19.677Z,15.20
2019-04-14T11:51:19.677Z,13.10
2019-04-14T11:53:08.007Z,12.10
2019-04-14T11:54:08.008Z,9.50
2019-04-14T11:55:08.006Z,8.80
2019-04-14T11:56:08.001Z,8.80
2019-04-14T11:57:08.007Z,10.00
2019-04-14T11:58:07.997Z,12.30
2019-04-14T11:59:08.006Z,11.50
2019-04-14T12:00:07.994Z,9.50
2019-04-14T12:01:08.051Z,8.20
2019-04-14T12:02:07.995Z,12.60
2019-04-14T12:03:07.991Z,13.60
2019-04-14T12:04:07.996Z,10.90
2019-04-14T12:05:07.984Z,11.60
2019-04-14T12:06:07.983Z,11.00
2019-04-14T12:07:09.397Z,10.50
2019-04-14T12:08:07.980Z,11.50
2019-04-14T12:09:07.978Z,11.30
2019-04-14T12:10:07.978Z,9.80
2019-04-14T12:11:07.974Z,10.70
2019-04-14T12:12:07.974Z,10.00
2019-04-14T12:13:07.972Z,8.50
2019-04-14T12:14:07.969Z,11.70
2019-04-14T12:15:07.969Z,8.20
2019-04-14T12:16:08.167Z,9.70
2019-04-14T12:17:07.964Z,9.20
2019-04-14T12:18:07.964Z,10.10
2019-04-14T12:20:08.161Z,11.20
2019-04-14T12:21:08.318Z,8.70
2019-04-14T12:22:08.835Z,10.10
2019-04-14T12:23:07.954Z,12.00
2019-04-14T12:24:07.951Z,11.90
2019-04-14T12:25:07.949Z,7.10
2019-04-14T12:26:51.300Z,11.50
2019-04-14T12:27:51.377Z,10.40
2019-04-14T12:28:51.565Z,8.00
2019-04-14T12:29:52.148Z,10.10
2019-04-14T12:30:51.261Z,10.00
2019-04-14T12:31:51.266Z,14.50
2019-04-14T12:32:51.256Z,7.90
2019-04-14T12:33:51.254Z,7.90
2019-04-14T12:34:51.255Z,8.90
2019-04-14T12:35:51.259Z,9.80
2019-04-14T12:36:51.311Z,10.90
2019-04-14T12:37:51.246Z,9.50
2019-04-14T12:38:51.244Z,14.70
2019-04-14T12:39:51.243Z,10.40
2019-04-14T12:40:52.335Z,11.70
2019-04-14T12:41:51.235Z,17.80
2019-04-14T12:42:51.236Z,12.40
2019-04-14T12:43:51.232Z,11.90
2019-04-14T12:44:51.229Z,11.10
2019-04-14T12:45:51.228Z,10.30
2019-04-14T12:46:51.225Z,12.30
2019-04-14T12:47:51.221Z,9.40
2019-04-14T12:48:51.227Z,9.50
2019-04-14T12:49:51.218Z,9.90
2019-04-14T12:50:51.214Z,10.90
2019-04-14T12:51:51.212Z,8.20
2019-04-14T12:52:51.215Z,11.90
2019-04-14T12:53:51.206Z,9.80
2019-04-14T12:54:51.209Z,9.50
2019-04-14T12:55:51.204Z,8.80
2019-04-14T12:56:51.202Z,8.00
2019-04-14T12:57:51.201Z,10.80
2019-04-14T12:58:51.197Z,9.90
2019-04-14T12:59:51.197Z,12.10
2019-04-14T13:00:51.191Z,7.30
2019-04-14T13:01:51.191Z,8.40
2019-04-14T13:02:51.191Z,8.70
2019-04-14T13:03:51.188Z,12.90
2019-04-14T13:04:51.183Z,11.50
2019-04-14T13:05:51.190Z,10.00
2019-04-14T13:06:51.182Z,8.60
2019-04-14T13:07:51.177Z,8.10
2019-04-14T13:08:51.176Z,9.40
2019-04-14T13:09:51.172Z,9.00
2019-04-14T13:10:51.173Z,8.40
2019-04-14T13:11:51.170Z,10.10
2019-04-14T13:12:51.167Z,9.70
2019-04-14T13:13:51.165Z,8.80
2019-04-14T13:14:51.163Z,8.40
2019-04-14T13:15:51.164Z,7.50
2019-04-14T13:16:51.158Z,9.50
2019-04-14T13:17:51.159Z,9.80
2019-04-14T13:18:51.156Z,7.30
2019-04-14T13:19:51.153Z,9.30
2019-04-14T13:20:51.152Z,8.60
2019-04-14T13:21:51.149Z,6.80
2019-04-14T13:22:51.145Z,9.70
2019-04-14T13:23:51.147Z,9.40
2019-04-14T13:24:51.142Z,9.70
2019-04-14T13:25:51.144Z,9.40
2019-04-14T13:26:51.139Z,10.90
2019-04-14T13:27:51.141Z,7.40